Zuiderdam — PBIG — position and weather

sailwx.info

Track history (hours):
 
Tides and Currents Weather Stations Pressure Air Temp Water Temp Dewpoint Dewpoint Depression Visibility Wind Speed Wind Dir Waves Ship Positions

Zuiderdam (Netherlands)

Operator: Holland America Line

Last reported at 2017-May-25 04:00 UTC. Time now 2017-May-25 10:36 UTC.
Position N 57°48' W 003°30'.

Type: Passenger vessel. MMSI: 245304000.

Wind from 220 at 7 knots

Barometer 1022.0 mb
Visibility: greater than 10.8 NM
Water temperature 14.0 ° C

Date/timePositionNaut miles runAvg speedWind from/ knotsBaromVisibWave heightAir tempDewpointWater temp
2017-May-25 04:00N 57°48' W 003°30'20869.4 220 / 71022.010.8 14.0
2017-May-25 01:00N 58°12' E 003°00'186246.6 200 / 151021.010.8 12.0 5.6 9.0
2017-May-25 00:14N 58°25' W 002°53'313.0
2017-May-25 00:00N 58°28' W 002°52'18211280.1
2017-May-25 00:00N 58°18' E 002°54'182377.8 200 / 151022.010.8 12.0 5.6 9.0
2017-May-24 23:31N 58°35' W 002°53'815.1
2017-May-24 23:01N 58°41' W 003°02'815.4
2017-May-24 22:31N 58°43' W 003°16'816.9
2017-May-24 22:01N 58°42' W 003°32'917.5
2017-May-24 21:31N 58°42' W 003°49'917.7
2017-May-24 21:01N 58°42' W 004°06'3618.4
2017-May-24 19:02N 58°31' W 005°13'021.2
2017-May-24 19:00N 58°31' W 005°13'5320.8
2017-May-24 16:29N 57°44' W 005°60'12 1.1
2017-May-24 05:14N 57°32' W 006°04'418.3
2017-May-24 05:00N 57°36' W 006°00'315.4 180 / 71020.010.8 12.0
2017-May-24 04:49N 57°39' W 006°01'379462.3
2017-May-24 04:00N 57°48' E 005°48'3819.1 210 / 101019.0 5.4 12.0
2017-May-24 02:00N 58°24' E 005°24'2512.4 230 / 121017.010.8 11.0 3.310.0
2017-May-24 00:00N 58°48' E 005°12'306400.6 230 / 151016.0 2.2 11.0 3.310.0
2017-May-23 23:14N 59°08' W 004°41'418.4
2017-May-23 23:00N 59°10' W 004°34'918.6
2017-May-23 22:30N 59°15' W 004°18'1018.5
2017-May-23 21:59N 59°20' W 004°02'119 6.6
2017-May-23 04:00N 60°06' W 000°24'2221.7 150 / 151009.0 5.4 12.0
2017-May-23 03:00N 60°12' E 000°18'12313.8 320 / 161011.0 2.2 12.0 4.2 9.0
2017-May-22 18:04N 60°44' E 004°19'116.0
2017-May-22 18:01N 60°44' E 004°21'816.0
2017-May-22 17:30N 60°46' E 004°37'713.8
2017-May-22 17:00N 60°42' E 004°49'714.3
2017-May-22 16:30N 60°35' E 004°55'816.4
2017-May-22 16:00N 60°27' E 005°01'713.8
2017-May-22 15:30N 60°23' E 005°11'4 7.7
2017-May-22 15:00N 60°24' E 005°19'0 0.2
2017-May-22 13:55N 60°24' E 005°19'0 0.0
2017-May-22 13:25N 60°24' E 005°19'0 0.0
2017-May-22 12:49N 60°24' E 005°19'0 0.0
2017-May-22 12:25N 60°24' E 005°19'0 0.0
2017-May-22 11:55N 60°24' E 005°19'0 0.0
2017-May-22 11:25N 60°24' E 005°19'0 0.0
2017-May-22 10:58N 60°24' E 005°19'0 0.0
2017-May-22 10:28N 60°24' E 005°19'0 0.0
2017-May-22 09:58N 60°24' E 005°19'0 0.0
2017-May-22 09:28N 60°24' E 005°19'0 0.0
2017-May-22 08:58N 60°24' E 005°19'0 0.0
2017-May-22 08:25N 60°24' E 005°19'0 0.0
2017-May-22 07:58N 60°24' E 005°19'0 0.0
2017-May-22 07:28N 60°24' E 005°19'0 0.0
2017-May-22 06:58N 60°24' E 005°19'0 0.0
2017-May-22 06:28N 60°24' E 005°19'0 0.0
2017-May-22 05:58N 60°24' E 005°19'0 0.3
2017-May-22 05:30N 60°24' E 005°19'3 5.9
2017-May-22 05:01N 60°24' E 005°13'4 8.7
2017-May-22 04:30N 60°25' E 005°04'510.2
2017-May-22 04:00N 60°29' E 004°59'173071.8
2017-May-22 04:00N 60°30' E 004°24'1632.5 180 / 101021.010.8 14.0
2017-May-22 03:30N 60°34' E 004°55'510.1
2017-May-22 03:00N 60°39' E 004°51'3406.4
2017-May-22 03:00N 60°36' E 004°48'815.2 180 / 101021.010.8 14.0
2017-May-22 02:29N 60°44' E 004°48'510.1
2017-May-22 02:00N 60°48' E 004°44'5 9.7
2017-May-22 01:30N 60°53' E 004°40'510.1
2017-May-22 01:00N 60°58' E 004°41'510.2
2017-May-22 00:30N 61°01' E 004°50'5 9.7
2017-May-22 00:01N 61°03' E 004°58'5 9.6
2017-May-21 23:30N 61°06' E 005°07'5 9.6
2017-May-21 23:00N 61°05' E 005°16'5 9.8
2017-May-21 22:30N 61°04' E 005°27'510.2
2017-May-21 22:00N 61°06' E 005°36'510.0
2017-May-21 21:30N 61°08' E 005°45'510.3
2017-May-21 21:00N 61°09' E 005°56'610.9
2017-May-21 20:30N 61°08' E 006°08'510.5
2017-May-21 20:00N 61°07' E 006°18'510.4
2017-May-21 19:30N 61°06' E 006°28'510.4
2017-May-21 19:00N 61°10' E 006°36'5 9.4
2017-May-21 18:30N 61°10' E 006°46'5 9.6
2017-May-21 18:00N 61°08' E 006°54'5 9.6
2017-May-21 17:30N 61°04' E 007°01'510.6
2017-May-21 17:00N 60°59' E 007°02'2 3.5
2017-May-21 16:30N 60°58' E 006°59'5 9.2
2017-May-21 16:00N 60°57' E 007°08'510.2
2017-May-21 15:29N 60°52' E 007°07'0 0.2
2017-May-21 15:00N 60°52' E 007°07'0 0.0
2017-May-21 14:00N 60°52' E 007°07'0 0.0
2017-May-21 13:30N 60°52' E 007°07'0 0.0
2017-May-21 13:00N 60°52' E 007°07'0 0.0
2017-May-21 12:30N 60°52' E 007°07'0 0.0
2017-May-21 12:00N 60°52' E 007°07'0 0.0
2017-May-21 11:30N 60°52' E 007°07'0 0.0
2017-May-21 11:00N 60°52' E 007°07'0 0.0
2017-May-21 10:30N 60°52' E 007°07'0 0.0
2017-May-21 10:00N 60°52' E 007°07'0 0.0
2017-May-21 09:30N 60°52' E 007°07'0 0.0
2017-May-21 09:00N 60°52' E 007°07'0 0.0
2017-May-21 08:30N 60°52' E 007°07'0 0.0
2017-May-21 08:00N 60°52' E 007°07'0 0.0
2017-May-21 07:30N 60°52' E 007°07'0 0.0
2017-May-21 07:00N 60°52' E 007°07'0 0.0
2017-May-21 06:30N 60°52' E 007°07'0 0.0
2017-May-21 06:00N 60°52' E 007°07'0 0.1
2017-May-21 05:30N 60°52' E 007°07'2 3.4
2017-May-21 05:00N 60°53' E 007°09'5 9.8
2017-May-21 04:30N 60°58' E 007°05'713.9
2017-May-21 04:00N 61°05' E 007°00'715.2
2017-May-21 03:30N 61°10' E 006°49'713.4
2017-May-21 03:00N 61°09' E 006°35'816.1
2017-May-21 02:30N 61°06' E 006°19'918.2
2017-May-21 02:00N 61°08' E 006°01'816.3
2017-May-21 01:30N 61°07' E 005°44'612.8
2017-May-21 01:00N 61°05' E 005°32'816.8
2017-May-21 00:30N 61°05' E 005°15'917.0
2017-May-21 00:00N 61°03' E 004°57'918.6
2017-May-20 23:30N 60°57' E 004°43'612.0
2017-May-20 23:00N 60°51' E 004°38'611.5
2017-May-20 22:31N 60°47' E 004°30'714.0
2017-May-20 22:00N 60°40' E 004°26'9015.9
2017-May-20 16:19N 59°10' E 004°45'517.4
2017-May-20 16:00N 59°07' E 004°53'817.0
2017-May-20 15:31N 59°03' E 005°07'917.9
2017-May-20 15:00N 59°07' E 005°23'611.5
2017-May-20 14:30N 59°05' E 005°33'8 7.7
2017-May-20 13:27N 58°58' E 005°44'0 0.0
2017-May-20 12:57N 58°58' E 005°44'0 0.0
2017-May-20 12:27N 58°58' E 005°44'0 0.0
2017-May-20 11:57N 58°58' E 005°44'0 0.0
2017-May-20 11:27N 58°58' E 005°44'0 0.0
2017-May-20 10:57N 58°58' E 005°44'0 0.0
2017-May-20 10:27N 58°58' E 005°44'0 0.0
2017-May-20 09:57N 58°58' E 005°44'0 0.0
2017-May-20 09:27N 58°58' E 005°44'0 0.0
2017-May-20 09:00N 58°58' E 005°44'0 0.0
2017-May-20 08:30N 58°58' E 005°44'0 0.0
2017-May-20 08:00N 58°58' E 005°44'0 0.0
2017-May-20 07:30N 58°58' E 005°44'0 0.0
2017-May-20 07:00N 58°58' E 005°44'0 0.0
2017-May-20 06:30N 58°58' E 005°44'0 0.0
2017-May-20 06:00N 58°58' E 005°44'0 0.0
2017-May-20 05:30N 58°58' E 005°44'0 0.0
2017-May-20 05:00N 58°58' E 005°44'0 0.0
2017-May-20 04:30N 58°58' E 005°44'0 0.4
2017-May-20 04:00N 58°59' E 005°44'5 9.6
2017-May-20 03:31N 59°02' E 005°37'510.3
2017-May-20 03:01N 58°57' E 005°33'714.0
2017-May-20 02:31N 58°51' E 005°29'612.0
2017-May-20 02:00N 58°46' E 005°22'613.0
2017-May-20 01:30N 58°40' E 005°20'612.9
2017-May-20 01:00N 58°33' E 005°19'713.6
2017-May-20 00:29N 58°26' E 005°17'816.4
2017-May-20 00:00N 58°20' E 005°26'918.6
2017-May-19 23:30N 58°14' E 005°39'1019.0
2017-May-19 23:00N 58°08' E 005°53'919.1
2017-May-19 22:30N 58°01' E 006°07'1019.4
2017-May-19 22:00N 57°55' E 006°20'15960.1
2017-May-19 22:00N 57°42' E 006°36'714.4 060 / 81012.0 2.2 10.0 10.0
2017-May-19 21:30N 57°49' E 006°34'917.4
2017-May-19 21:00N 57°49' E 006°50'1018.8
2017-May-19 20:30N 57°51' E 007°08'918.9
2017-May-19 20:00N 57°54' E 007°25'918.9
2017-May-19 19:30N 57°56' E 007°42'1019.3
2017-May-19 19:00N 57°59' E 007°59'712.9
2017-May-19 18:30N 58°05' E 008°04'4 7.0
2017-May-19 17:59N 58°08' E 007°59'0 0.0
2017-May-19 17:29N 58°08' E 007°59'0 0.0
2017-May-19 16:59N 58°08' E 007°59'0 0.0
2017-May-19 16:29N 58°08' E 007°59'0 0.1
2017-May-19 15:59N 58°08' E 007°59'0 0.1
2017-May-19 15:29N 58°08' E 007°59'0 0.1
2017-May-19 14:59N 58°08' E 007°59'0 0.0
2017-May-19 13:59N 58°08' E 007°59'0 0.0
2017-May-19 13:29N 58°08' E 007°59'0 0.0
2017-May-19 12:59N 58°08' E 007°59'0 0.0
2017-May-19 12:29N 58°08' E 007°59'0 0.1
2017-May-19 11:59N 58°08' E 007°59'0 0.1
2017-May-19 11:29N 58°08' E 007°59'0 0.0
2017-May-19 10:59N 58°08' E 007°59'0 0.1
2017-May-19 10:29N 58°08' E 007°59'0 0.0
2017-May-19 09:59N 58°08' E 007°59'0 0.0
2017-May-19 09:29N 58°08' E 007°59'0 0.0
2017-May-19 08:59N 58°08' E 007°59'0 0.0
2017-May-19 08:29N 58°08' E 007°59'0 0.0
2017-May-19 07:59N 58°08' E 007°59'0 0.0
2017-May-19 07:29N 58°08' E 007°59'0 0.0
2017-May-19 06:59N 58°08' E 007°59'0 0.0
2017-May-19 06:29N 58°08' E 007°59'0 0.0
2017-May-19 05:59N 58°08' E 007°59'0 0.0
2017-May-19 05:29N 58°08' E 007°59'0 0.0
2017-May-19 04:59N 58°08' E 007°59'1 2.6
2017-May-19 04:30N 58°07' E 008°01'510.0
2017-May-19 04:00N 58°03' E 008°07'510.8
2017-May-19 03:30N 58°04' E 008°17'612.4
2017-May-19 03:00N 58°08' E 008°27'612.5
2017-May-19 02:30N 58°11' E 008°37'713.3
2017-May-19 02:00N 58°15' E 008°48'713.2
2017-May-19 01:30N 58°18' E 008°58'713.6
2017-May-19 01:00N 58°22' E 009°09'613.1
2017-May-19 00:30N 58°25' E 009°19'712.9
2017-May-19 00:00N 58°29' E 009°30'712.9
2017-May-18 23:29N 58°33' E 009°39'612.9
2017-May-18 22:59N 58°38' E 009°48'714.1
2017-May-18 22:30N 58°43' E 009°57'713.9
2017-May-18 22:00N 58°47' E 010°07'714.1
2017-May-18 21:30N 58°52' E 010°17'714.2
2017-May-18 21:00N 58°57' E 010°28'713.8
2017-May-18 20:30N 59°03' E 010°35'510.5
2017-May-18 20:01N 59°08' E 010°36'713.3
2017-May-18 19:30N 59°14' E 010°37'713.9
2017-May-18 19:00N 59°21' E 010°34'713.8
2017-May-18 18:30N 59°28' E 010°33'713.6
2017-May-18 18:00N 59°34' E 010°38'611.5
2017-May-18 17:30N 59°40' E 010°37'611.4
2017-May-18 17:00N 59°46' E 010°33'612.8
2017-May-18 16:31N 59°52' E 010°37'4 8.2
2017-May-18 16:00N 59°54' E 010°44'0 0.4
2017-May-18 15:29N 59°54' E 010°44'0 0.0
2017-May-18 14:59N 59°54' E 010°44'0 0.0
2017-May-18 13:59N 59°54' E 010°44'0 0.0
2017-May-18 13:29N 59°54' E 010°44'0 0.0
2017-May-18 12:59N 59°54' E 010°44'0 0.0
2017-May-18 12:29N 59°54' E 010°44'0 0.0
2017-May-18 11:59N 59°54' E 010°44'0 0.0
2017-May-18 11:29N 59°54' E 010°44'0 0.0
2017-May-18 10:59N 59°54' E 010°44'0 0.0
2017-May-18 10:29N 59°54' E 010°44'0 0.0
2017-May-18 09:59N 59°54' E 010°44'0 0.0
2017-May-18 09:29N 59°54' E 010°44'0 0.0
2017-May-18 08:59N 59°54' E 010°44'0 0.0
2017-May-18 08:29N 59°54' E 010°44'0 0.0
2017-May-18 07:59N 59°54' E 010°44'0 0.0
2017-May-18 07:29N 59°54' E 010°44'0 1.0
2017-May-18 07:00N 59°54' E 010°44'4 7.9
2017-May-18 06:31N 59°51' E 010°38'510.4
2017-May-18 06:01N 59°47' E 010°35'510.1
2017-May-18 05:31N 59°42' E 010°36'611.4
2017-May-18 05:01N 59°36' E 010°38'611.4
2017-May-18 04:31N 59°30' E 010°35'917.9
2017-May-18 04:01N 59°22' E 010°35'918.4
2017-May-18 03:30N 59°12' E 010°39'815.3
2017-May-18 03:00N 59°05' E 010°35'713.7
2017-May-18 02:30N 58°58' E 010°35'714.1
2017-May-18 02:00N 58°51' E 010°38'816.4
2017-May-18 01:30N 58°43' E 010°40'816.6
2017-May-18 01:00N 58°35' E 010°42'5349.0
2017-May-18 01:00N 58°30' E 010°42'4 7.4 360 / 101013.0 2.2 11.0
2017-May-18 00:30N 58°27' E 010°44'816.6
2017-May-18 00:01N 58°18' E 010°46'7390.6
2017-May-18 00:00N 58°12' E 010°42'4 7.4 1014.0 0.1 11.0
2017-May-17 23:30N 58°10' E 010°48'816.0
2017-May-17 23:00N 58°02' E 010°50'8680.2
2017-May-17 23:00N 57°54' E 010°48'510.1 1015.0 0.0 12.0
2017-May-17 22:28N 57°54' E 010°58'918.4
2017-May-17 22:00N 57°47' E 011°07'918.6
2017-May-17 21:29N 57°38' E 011°15'918.3
2017-May-17 21:00N 57°31' E 011°23'918.4
2017-May-17 20:30N 57°22' E 011°29'1018.8
2017-May-17 19:59N 57°13' E 011°36'918.4
2017-May-17 19:30N 57°05' E 011°41'1218.4
2017-May-17 18:52N 56°54' E 011°48'718.4
2017-May-17 18:30N 56°47' E 011°53'4016.8
2017-May-17 16:09N 56°11' E 012°22'317.4
2017-May-17 16:00N 56°10' E 012°26'917.3
2017-May-17 15:30N 56°04' E 012°38'816.6
2017-May-17 15:00N 55°56' E 012°43'1413.8
2017-May-17 14:01N 55°43' E 012°38'0 0.0
2017-May-17 07:25N 55°43' E 012°38'0 0.0
2017-May-17 06:31N 55°43' E 012°38'0 0.0
2017-May-17 04:55N 55°43' E 012°38'0 0.0
2017-May-16 15:34N 55°43' E 012°38'0 0.0
2017-May-16 15:28N 55°43' E 012°38'0 0.0
2017-May-16 14:58N 55°43' E 012°38'0 0.0
2017-May-16 13:58N 55°43' E 012°38'0 0.0
2017-May-16 13:28N 55°43' E 012°38'0 0.0
2017-May-16 12:58N 55°43' E 012°38'0 0.0
2017-May-16 12:28N 55°43' E 012°38'0 0.0
2017-May-16 11:58N 55°43' E 012°38'0 0.0
2017-May-16 11:28N 55°43' E 012°38'0 0.0
2017-May-16 10:58N 55°43' E 012°38'0 0.0
2017-May-16 10:28N 55°43' E 012°38'0 0.0
2017-May-16 09:58N 55°43' E 012°38'0 0.0
2017-May-16 09:28N 55°43' E 012°38'0 0.0
2017-May-16 08:58N 55°43' E 012°38'0 0.0
2017-May-16 08:30N 55°43' E 012°38'0 0.9
2017-May-16 08:00N 55°43' E 012°39'5 9.8
2017-May-16 07:30N 55°48' E 012°42'611.4
2017-May-16 07:00N 55°53' E 012°39'714.1
2017-May-16 06:30N 56°00' E 012°40'713.3
2017-May-16 06:01N 56°06' E 012°34'713.8
2017-May-16 05:30N 56°10' E 012°24'714.3
2017-May-16 05:00N 56°12' E 012°11'6344.7
2017-May-16 05:00N 56°06' E 012°12'1716.7 250 / 61027.010.8 12.3 7.612.0
2017-May-16 04:00N 56°06' E 011°42'1716.7 250 / 61027.010.8 12.2 7.512.0
2017-May-16 03:00N 56°06' E 011°12'3417.2 250 / 151027.010.8 12.1 7.212.0
2017-May-16 01:00N 55°36' E 010°42'1615.7 190 / 171028.010.8 12.7 6.712.0
2017-May-16 00:00N 55°24' E 011°00'218.2 150 / 171028.010.8 13.5 6.410.0
2017-May-15 23:52N 55°22' E 011°02'916.9
2017-May-15 23:19N 55°13' E 011°06'516.9
2017-May-15 23:00N 55°08' E 011°03'917.1
2017-May-15 22:30N 54°60' E 011°01'816.1
2017-May-15 22:00N 54°53' E 010°53'816.4
2017-May-15 21:30N 54°45' E 010°53'815.2
2017-May-15 21:00N 54°39' E 011°01'917.1
2017-May-15 20:30N 54°36' E 011°15'917.0
2017-May-15 20:00N 54°31' E 011°28'3281.1
2017-May-15 20:00N 54°30' E 011°24'1618.7 200 / 121027.010.8 14.0 5.910.0
2017-May-15 19:10N 54°25' E 011°49'316.9
2017-May-15 18:58N 54°23' E 011°53'17 4.3
2017-May-15 15:00N 54°06' E 012°00'   270 / 41027.010.8 21.4 5.712.0
Track history (hours):
 
Tides and Currents Weather Stations Pressure Air Temp Water Temp Dewpoint Dewpoint Depression Visibility Wind Speed Wind Dir Waves Ship Positions

Zuiderdam (Netherlands)

Operator: Holland America Line

Last reported at 2017-May-25 04:00 UTC. Time now 2017-May-25 10:36 UTC.
Position N 57°48' W 003°30'.

Type: Passenger vessel. MMSI: 245304000.

Wind from 220 at 7 knots

Barometer 1022.0 mb
Visibility: greater than 10.8 NM
Water temperature 14.0 ° C

Date/timePositionNaut miles runAvg speedWind from/ knotsBaromVisibWave heightAir tempDewpointWater temp
2017-May-25 04:00N 57°48' W 003°30'20869.4 220 / 71022.010.8 14.0
2017-May-25 01:00N 58°12' E 003°00'186246.6 200 / 151021.010.8 12.0 5.6 9.0
2017-May-25 00:14N 58°25' W 002°53'313.0
2017-May-25 00:00N 58°28' W 002°52'18211280.1
2017-May-25 00:00N 58°18' E 002°54'182377.8 200 / 151022.010.8 12.0 5.6 9.0
2017-May-24 23:31N 58°35' W 002°53'815.1
2017-May-24 23:01N 58°41' W 003°02'815.4
2017-May-24 22:31N 58°43' W 003°16'816.9
2017-May-24 22:01N 58°42' W 003°32'917.5
2017-May-24 21:31N 58°42' W 003°49'917.7
2017-May-24 21:01N 58°42' W 004°06'3618.4
2017-May-24 19:02N 58°31' W 005°13'021.2
2017-May-24 19:00N 58°31' W 005°13'5320.8
2017-May-24 16:29N 57°44' W 005°60'12 1.1
2017-May-24 05:14N 57°32' W 006°04'418.3
2017-May-24 05:00N 57°36' W 006°00'315.4 180 / 71020.010.8 12.0
2017-May-24 04:49N 57°39' W 006°01'379462.3
2017-May-24 04:00N 57°48' E 005°48'3819.1 210 / 101019.0 5.4 12.0
2017-May-24 02:00N 58°24' E 005°24'2512.4 230 / 121017.010.8 11.0 3.310.0
2017-May-24 00:00N 58°48' E 005°12'306400.6 230 / 151016.0 2.2 11.0 3.310.0
2017-May-23 23:14N 59°08' W 004°41'418.4
2017-May-23 23:00N 59°10' W 004°34'918.6
2017-May-23 22:30N 59°15' W 004°18'1018.5
2017-May-23 21:59N 59°20' W 004°02'119 6.6
2017-May-23 04:00N 60°06' W 000°24'2221.7 150 / 151009.0 5.4 12.0
2017-May-23 03:00N 60°12' E 000°18'12313.8 320 / 161011.0 2.2 12.0 4.2 9.0
2017-May-22 18:04N 60°44' E 004°19'116.0
2017-May-22 18:01N 60°44' E 004°21'816.0
2017-May-22 17:30N 60°46' E 004°37'713.8
2017-May-22 17:00N 60°42' E 004°49'714.3
2017-May-22 16:30N 60°35' E 004°55'816.4
2017-May-22 16:00N 60°27' E 005°01'713.8
2017-May-22 15:30N 60°23' E 005°11'4 7.7
2017-May-22 15:00N 60°24' E 005°19'0 0.2
2017-May-22 13:55N 60°24' E 005°19'0 0.0
2017-May-22 13:25N 60°24' E 005°19'0 0.0
2017-May-22 12:49N 60°24' E 005°19'0 0.0
2017-May-22 12:25N 60°24' E 005°19'0 0.0
2017-May-22 11:55N 60°24' E 005°19'0 0.0
2017-May-22 11:25N 60°24' E 005°19'0 0.0
2017-May-22 10:58N 60°24' E 005°19'0 0.0
2017-May-22 10:28N 60°24' E 005°19'0 0.0
2017-May-22 09:58N 60°24' E 005°19'0 0.0
2017-May-22 09:28N 60°24' E 005°19'0 0.0
2017-May-22 08:58N 60°24' E 005°19'0 0.0
2017-May-22 08:25N 60°24' E 005°19'0 0.0
2017-May-22 07:58N 60°24' E 005°19'0 0.0
2017-May-22 07:28N 60°24' E 005°19'0 0.0
2017-May-22 06:58N 60°24' E 005°19'0 0.0
2017-May-22 06:28N 60°24' E 005°19'0 0.0
2017-May-22 05:58N 60°24' E 005°19'0 0.3
2017-May-22 05:30N 60°24' E 005°19'3 5.9
2017-May-22 05:01N 60°24' E 005°13'4 8.7
2017-May-22 04:30N 60°25' E 005°04'510.2
2017-May-22 04:00N 60°29' E 004°59'173071.8
2017-May-22 04:00N 60°30' E 004°24'1632.5 180 / 101021.010.8 14.0
2017-May-22 03:30N 60°34' E 004°55'510.1
2017-May-22 03:00N 60°39' E 004°51'3406.4
2017-May-22 03:00N 60°36' E 004°48'815.2 180 / 101021.010.8 14.0
2017-May-22 02:29N 60°44' E 004°48'510.1
2017-May-22 02:00N 60°48' E 004°44'5 9.7
2017-May-22 01:30N 60°53' E 004°40'510.1
2017-May-22 01:00N 60°58' E 004°41'510.2
2017-May-22 00:30N 61°01' E 004°50'5 9.7
2017-May-22 00:01N 61°03' E 004°58'5 9.6
2017-May-21 23:30N 61°06' E 005°07'5 9.6
2017-May-21 23:00N 61°05' E 005°16'5 9.8
2017-May-21 22:30N 61°04' E 005°27'510.2
2017-May-21 22:00N 61°06' E 005°36'510.0
2017-May-21 21:30N 61°08' E 005°45'510.3
2017-May-21 21:00N 61°09' E 005°56'610.9
2017-May-21 20:30N 61°08' E 006°08'510.5
2017-May-21 20:00N 61°07' E 006°18'510.4
2017-May-21 19:30N 61°06' E 006°28'510.4
2017-May-21 19:00N 61°10' E 006°36'5 9.4
2017-May-21 18:30N 61°10' E 006°46'5 9.6
2017-May-21 18:00N 61°08' E 006°54'5 9.6
2017-May-21 17:30N 61°04' E 007°01'510.6
2017-May-21 17:00N 60°59' E 007°02'2 3.5
2017-May-21 16:30N 60°58' E 006°59'5 9.2
2017-May-21 16:00N 60°57' E 007°08'510.2
2017-May-21 15:29N 60°52' E 007°07'0 0.2
2017-May-21 15:00N 60°52' E 007°07'0 0.0
2017-May-21 14:00N 60°52' E 007°07'0 0.0
2017-May-21 13:30N 60°52' E 007°07'0 0.0
2017-May-21 13:00N 60°52' E 007°07'0 0.0
2017-May-21 12:30N 60°52' E 007°07'0 0.0
2017-May-21 12:00N 60°52' E 007°07'0 0.0
2017-May-21 11:30N 60°52' E 007°07'0 0.0
2017-May-21 11:00N 60°52' E 007°07'0 0.0
2017-May-21 10:30N 60°52' E 007°07'0 0.0
2017-May-21 10:00N 60°52' E 007°07'0 0.0
2017-May-21 09:30N 60°52' E 007°07'0 0.0
2017-May-21 09:00N 60°52' E 007°07'0 0.0
2017-May-21 08:30N 60°52' E 007°07'0 0.0
2017-May-21 08:00N 60°52' E 007°07'0 0.0
2017-May-21 07:30N 60°52' E 007°07'0 0.0
2017-May-21 07:00N 60°52' E 007°07'0 0.0
2017-May-21 06:30N 60°52' E 007°07'0 0.0
2017-May-21 06:00N 60°52' E 007°07'0 0.1
2017-May-21 05:30N 60°52' E 007°07'2 3.4
2017-May-21 05:00N 60°53' E 007°09'5 9.8
2017-May-21 04:30N 60°58' E 007°05'713.9
2017-May-21 04:00N 61°05' E 007°00'715.2
2017-May-21 03:30N 61°10' E 006°49'713.4
2017-May-21 03:00N 61°09' E 006°35'816.1
2017-May-21 02:30N 61°06' E 006°19'918.2
2017-May-21 02:00N 61°08' E 006°01'816.3
2017-May-21 01:30N 61°07' E 005°44'612.8
2017-May-21 01:00N 61°05' E 005°32'816.8
2017-May-21 00:30N 61°05' E 005°15'917.0
2017-May-21 00:00N 61°03' E 004°57'918.6
2017-May-20 23:30N 60°57' E 004°43'612.0
2017-May-20 23:00N 60°51' E 004°38'611.5
2017-May-20 22:31N 60°47' E 004°30'714.0
2017-May-20 22:00N 60°40' E 004°26'9015.9
2017-May-20 16:19N 59°10' E 004°45'517.4
2017-May-20 16:00N 59°07' E 004°53'817.0
2017-May-20 15:31N 59°03' E 005°07'917.9
2017-May-20 15:00N 59°07' E 005°23'611.5
2017-May-20 14:30N 59°05' E 005°33'8 7.7
2017-May-20 13:27N 58°58' E 005°44'0 0.0
2017-May-20 12:57N 58°58' E 005°44'0 0.0
2017-May-20 12:27N 58°58' E 005°44'0 0.0
2017-May-20 11:57N 58°58' E 005°44'0 0.0
2017-May-20 11:27N 58°58' E 005°44'0 0.0
2017-May-20 10:57N 58°58' E 005°44'0 0.0
2017-May-20 10:27N 58°58' E 005°44'0 0.0
2017-May-20 09:57N 58°58' E 005°44'0 0.0
2017-May-20 09:27N 58°58' E 005°44'0 0.0
2017-May-20 09:00N 58°58' E 005°44'0 0.0
2017-May-20 08:30N 58°58' E 005°44'0 0.0
2017-May-20 08:00N 58°58' E 005°44'0 0.0
2017-May-20 07:30N 58°58' E 005°44'0 0.0
2017-May-20 07:00N 58°58' E 005°44'0 0.0
2017-May-20 06:30N 58°58' E 005°44'0 0.0
2017-May-20 06:00N 58°58' E 005°44'0 0.0
2017-May-20 05:30N 58°58' E 005°44'0 0.0
2017-May-20 05:00N 58°58' E 005°44'0 0.0
2017-May-20 04:30N 58°58' E 005°44'0 0.4
2017-May-20 04:00N 58°59' E 005°44'5 9.6
2017-May-20 03:31N 59°02' E 005°37'510.3
2017-May-20 03:01N 58°57' E 005°33'714.0
2017-May-20 02:31N 58°51' E 005°29'612.0
2017-May-20 02:00N 58°46' E 005°22'613.0
2017-May-20 01:30N 58°40' E 005°20'612.9
2017-May-20 01:00N 58°33' E 005°19'713.6
2017-May-20 00:29N 58°26' E 005°17'816.4
2017-May-20 00:00N 58°20' E 005°26'918.6
2017-May-19 23:30N 58°14' E 005°39'1019.0
2017-May-19 23:00N 58°08' E 005°53'919.1
2017-May-19 22:30N 58°01' E 006°07'1019.4
2017-May-19 22:00N 57°55' E 006°20'15960.1
2017-May-19 22:00N 57°42' E 006°36'714.4 060 / 81012.0 2.2 10.0 10.0
2017-May-19 21:30N 57°49' E 006°34'917.4
2017-May-19 21:00N 57°49' E 006°50'1018.8
2017-May-19 20:30N 57°51' E 007°08'918.9
2017-May-19 20:00N 57°54' E 007°25'918.9
2017-May-19 19:30N 57°56' E 007°42'1019.3
2017-May-19 19:00N 57°59' E 007°59'712.9
2017-May-19 18:30N 58°05' E 008°04'4 7.0
2017-May-19 17:59N 58°08' E 007°59'0 0.0
2017-May-19 17:29N 58°08' E 007°59'0 0.0
2017-May-19 16:59N 58°08' E 007°59'0 0.0
2017-May-19 16:29N 58°08' E 007°59'0 0.1
2017-May-19 15:59N 58°08' E 007°59'0 0.1
2017-May-19 15:29N 58°08' E 007°59'0 0.1
2017-May-19 14:59N 58°08' E 007°59'0 0.0
2017-May-19 13:59N 58°08' E 007°59'0 0.0
2017-May-19 13:29N 58°08' E 007°59'0 0.0
2017-May-19 12:59N 58°08' E 007°59'0 0.0
2017-May-19 12:29N 58°08' E 007°59'0 0.1
2017-May-19 11:59N 58°08' E 007°59'0 0.1
2017-May-19 11:29N 58°08' E 007°59'0 0.0
2017-May-19 10:59N 58°08' E 007°59'0 0.1
2017-May-19 10:29N 58°08' E 007°59'0 0.0
2017-May-19 09:59N 58°08' E 007°59'0 0.0
2017-May-19 09:29N 58°08' E 007°59'0 0.0
2017-May-19 08:59N 58°08' E 007°59'0 0.0
2017-May-19 08:29N 58°08' E 007°59'0 0.0
2017-May-19 07:59N 58°08' E 007°59'0 0.0
2017-May-19 07:29N 58°08' E 007°59'0 0.0
2017-May-19 06:59N 58°08' E 007°59'0 0.0
2017-May-19 06:29N 58°08' E 007°59'0 0.0
2017-May-19 05:59N 58°08' E 007°59'0 0.0
2017-May-19 05:29N 58°08' E 007°59'0 0.0
2017-May-19 04:59N 58°08' E 007°59'1 2.6
2017-May-19 04:30N 58°07' E 008°01'510.0
2017-May-19 04:00N 58°03' E 008°07'510.8
2017-May-19 03:30N 58°04' E 008°17'612.4
2017-May-19 03:00N 58°08' E 008°27'612.5
2017-May-19 02:30N 58°11' E 008°37'713.3
2017-May-19 02:00N 58°15' E 008°48'713.2
2017-May-19 01:30N 58°18' E 008°58'713.6
2017-May-19 01:00N 58°22' E 009°09'613.1
2017-May-19 00:30N 58°25' E 009°19'712.9
2017-May-19 00:00N 58°29' E 009°30'712.9
2017-May-18 23:29N 58°33' E 009°39'612.9
2017-May-18 22:59N 58°38' E 009°48'714.1
2017-May-18 22:30N 58°43' E 009°57'713.9
2017-May-18 22:00N 58°47' E 010°07'714.1
2017-May-18 21:30N 58°52' E 010°17'714.2
2017-May-18 21:00N 58°57' E 010°28'713.8
2017-May-18 20:30N 59°03' E 010°35'510.5
2017-May-18 20:01N 59°08' E 010°36'713.3
2017-May-18 19:30N 59°14' E 010°37'713.9
2017-May-18 19:00N 59°21' E 010°34'713.8
2017-May-18 18:30N 59°28' E 010°33'713.6
2017-May-18 18:00N 59°34' E 010°38'611.5
2017-May-18 17:30N 59°40' E 010°37'611.4
2017-May-18 17:00N 59°46' E 010°33'612.8
2017-May-18 16:31N 59°52' E 010°37'4 8.2
2017-May-18 16:00N 59°54' E 010°44'0 0.4
2017-May-18 15:29N 59°54' E 010°44'0 0.0
2017-May-18 14:59N 59°54' E 010°44'0 0.0
2017-May-18 13:59N 59°54' E 010°44'0 0.0
2017-May-18 13:29N 59°54' E 010°44'0 0.0
2017-May-18 12:59N 59°54' E 010°44'0 0.0
2017-May-18 12:29N 59°54' E 010°44'0 0.0
2017-May-18 11:59N 59°54' E 010°44'0 0.0
2017-May-18 11:29N 59°54' E 010°44'0 0.0
2017-May-18 10:59N 59°54' E 010°44'0 0.0
2017-May-18 10:29N 59°54' E 010°44'0 0.0
2017-May-18 09:59N 59°54' E 010°44'0 0.0
2017-May-18 09:29N 59°54' E 010°44'0 0.0
2017-May-18 08:59N 59°54' E 010°44'0 0.0
2017-May-18 08:29N 59°54' E 010°44'0 0.0
2017-May-18 07:59N 59°54' E 010°44'0 0.0
2017-May-18 07:29N 59°54' E 010°44'0 1.0
2017-May-18 07:00N 59°54' E 010°44'4 7.9
2017-May-18 06:31N 59°51' E 010°38'510.4
2017-May-18 06:01N 59°47' E 010°35'510.1
2017-May-18 05:31N 59°42' E 010°36'611.4
2017-May-18 05:01N 59°36' E 010°38'611.4
2017-May-18 04:31N 59°30' E 010°35'917.9
2017-May-18 04:01N 59°22' E 010°35'918.4
2017-May-18 03:30N 59°12' E 010°39'815.3
2017-May-18 03:00N 59°05' E 010°35'713.7
2017-May-18 02:30N 58°58' E 010°35'714.1
2017-May-18 02:00N 58°51' E 010°38'816.4
2017-May-18 01:30N 58°43' E 010°40'816.6
2017-May-18 01:00N 58°35' E 010°42'5349.0
2017-May-18 01:00N 58°30' E 010°42'4 7.4 360 / 101013.0 2.2 11.0
2017-May-18 00:30N 58°27' E 010°44'816.6
2017-May-18 00:01N 58°18' E 010°46'7390.6
2017-May-18 00:00N 58°12' E 010°42'4 7.4 1014.0 0.1 11.0
2017-May-17 23:30N 58°10' E 010°48'816.0
2017-May-17 23:00N 58°02' E 010°50'8680.2
2017-May-17 23:00N 57°54' E 010°48'510.1 1015.0 0.0 12.0
2017-May-17 22:28N 57°54' E 010°58'918.4
2017-May-17 22:00N 57°47' E 011°07'918.6
2017-May-17 21:29N 57°38' E 011°15'918.3
2017-May-17 21:00N 57°31' E 011°23'918.4
2017-May-17 20:30N 57°22' E 011°29'1018.8
2017-May-17 19:59N 57°13' E 011°36'918.4
2017-May-17 19:30N 57°05' E 011°41'1218.4
2017-May-17 18:52N 56°54' E 011°48'718.4
2017-May-17 18:30N 56°47' E 011°53'4016.8
2017-May-17 16:09N 56°11' E 012°22'317.4
2017-May-17 16:00N 56°10' E 012°26'917.3
2017-May-17 15:30N 56°04' E 012°38'816.6
2017-May-17 15:00N 55°56' E 012°43'1413.8
2017-May-17 14:01N 55°43' E 012°38'0 0.0
2017-May-17 07:25N 55°43' E 012°38'0 0.0
2017-May-17 06:31N 55°43' E 012°38'0 0.0
2017-May-17 04:55N 55°43' E 012°38'0 0.0
2017-May-16 15:34N 55°43' E 012°38'0 0.0
2017-May-16 15:28N 55°43' E 012°38'0 0.0
2017-May-16 14:58N 55°43' E 012°38'0 0.0
2017-May-16 13:58N 55°43' E 012°38'0 0.0
2017-May-16 13:28N 55°43' E 012°38'0 0.0
2017-May-16 12:58N 55°43' E 012°38'0 0.0
2017-May-16 12:28N 55°43' E 012°38'0 0.0
2017-May-16 11:58N 55°43' E 012°38'0 0.0
2017-May-16 11:28N 55°43' E 012°38'0 0.0
2017-May-16 10:58N 55°43' E 012°38'0 0.0
2017-May-16 10:28N 55°43' E 012°38'0 0.0
2017-May-16 09:58N 55°43' E 012°38'0 0.0
2017-May-16 09:28N 55°43' E 012°38'0 0.0
2017-May-16 08:58N 55°43' E 012°38'0 0.0
2017-May-16 08:30N 55°43' E 012°38'0 0.9
2017-May-16 08:00N 55°43' E 012°39'5 9.8
2017-May-16 07:30N 55°48' E 012°42'611.4
2017-May-16 07:00N 55°53' E 012°39'714.1
2017-May-16 06:30N 56°00' E 012°40'713.3
2017-May-16 06:01N 56°06' E 012°34'713.8
2017-May-16 05:30N 56°10' E 012°24'714.3
2017-May-16 05:00N 56°12' E 012°11'6344.7
2017-May-16 05:00N 56°06' E 012°12'1716.7 250 / 61027.010.8 12.3 7.612.0
2017-May-16 04:00N 56°06' E 011°42'1716.7 250 / 61027.010.8 12.2 7.512.0
2017-May-16 03:00N 56°06' E 011°12'3417.2 250 / 151027.010.8 12.1 7.212.0
2017-May-16 01:00N 55°36' E 010°42'1615.7 190 / 171028.010.8 12.7 6.712.0
2017-May-16 00:00N 55°24' E 011°00'218.2 150 / 171028.010.8 13.5 6.410.0
2017-May-15 23:52N 55°22' E 011°02'916.9
2017-May-15 23:19N 55°13' E 011°06'516.9
2017-May-15 23:00N 55°08' E 011°03'917.1
2017-May-15 22:30N 54°60' E 011°01'816.1
2017-May-15 22:00N 54°53' E 010°53'816.4
2017-May-15 21:30N 54°45' E 010°53'815.2
2017-May-15 21:00N 54°39' E 011°01'917.1
2017-May-15 20:30N 54°36' E 011°15'917.0
2017-May-15 20:00N 54°31' E 011°28'3281.1
2017-May-15 20:00N 54°30' E 011°24'1618.7 200 / 121027.010.8 14.0 5.910.0
2017-May-15 19:10N 54°25' E 011°49'316.9
2017-May-15 18:58N 54°23' E 011°53'17 4.3
2017-May-15 15:00N 54°06' E 012°00'   270 / 41027.010.8 21.4 5.712.0

Dump ship's entire track history